createdAt,value
2023-11-23T00:04:42.168Z,56.82
2023-11-23T00:07:54.397Z,56.61
2023-11-23T00:11:06.409Z,56.49
2023-11-23T00:14:18.258Z,54.80
2023-11-23T00:17:31.927Z,54.27
2023-11-23T00:20:26.678Z,54.17
2023-11-23T00:23:29.390Z,53.01
2023-11-23T00:26:35.344Z,53.28
2023-11-23T00:29:30.550Z,53.76
2023-11-23T00:32:42.391Z,54.88
2023-11-23T00:35:45.499Z,55.56
2023-11-23T00:38:57.217Z,53.97
2023-11-23T00:41:54.682Z,54.07
2023-11-23T00:44:49.108Z,54.53
2023-11-23T00:47:21.222Z,54.39
2023-11-23T00:49:52.678Z,54.85
2023-11-23T00:52:26.727Z,55.02
2023-11-23T00:55:30.030Z,55.97
2023-11-23T00:58:42.021Z,55.67
2023-11-23T01:01:55.757Z,55.53
2023-11-23T01:04:51.111Z,55.90
2023-11-23T01:07:22.375Z,55.91
2023-11-23T01:10:18.421Z,56.09
2023-11-23T01:13:14.489Z,56.11
2023-11-23T01:16:28.073Z,55.98
2023-11-23T01:19:21.902Z,57.31
2023-11-23T01:22:33.671Z,58.29
2023-11-23T01:25:48.819Z,58.33
2023-11-23T01:28:53.360Z,58.12
2023-11-23T01:32:05.393Z,59.32
2023-11-23T01:35:11.929Z,58.52
2023-11-23T01:38:24.343Z,59.20
2023-11-23T01:41:30.261Z,59.84
2023-11-23T01:47:17.879Z,60.56
2023-11-23T01:50:15.146Z,60.46
2023-11-23T01:53:17.576Z,59.75
2023-11-23T01:56:12.799Z,60.26
2023-11-23T01:58:44.971Z,61.20
2023-11-23T02:01:57.279Z,60.96
2023-11-23T02:05:14.564Z,59.88
2023-11-23T02:08:25.432Z,60.70
2023-11-23T02:11:37.541Z,60.31
2023-11-23T02:14:21.500Z,61.65
2023-11-23T02:17:35.996Z,60.64
2023-11-23T02:20:50.951Z,61.16
2023-11-23T02:24:03.226Z,60.02
2023-11-23T02:26:58.975Z,61.92
2023-11-23T02:29:53.733Z,61.03
2023-11-23T02:32:54.782Z,60.58
2023-11-23T02:35:29.352Z,61.43
2023-11-23T02:38:53.810Z,62.26
2023-11-23T02:41:57.990Z,61.78
2023-11-23T02:44:52.882Z,63.27
2023-11-23T02:47:58.614Z,63.23
2023-11-23T02:51:00.508Z,62.98
2023-11-23T02:53:34.237Z,64.10
2023-11-23T02:56:46.848Z,65.24
2023-11-23T03:02:30.832Z,66.90
2023-11-23T03:05:35.553Z,67.00
2023-11-23T03:08:27.204Z,66.44
2023-11-23T03:11:23.057Z,66.70
2023-11-23T03:14:17.624Z,67.85
2023-11-23T03:17:12.401Z,66.99
2023-11-23T03:20:27.159Z,67.57
2023-11-23T03:23:38.857Z,68.08
2023-11-23T03:26:31.942Z,67.67
2023-11-23T03:29:32.616Z,66.21
2023-11-23T03:32:26.839Z,67.02
2023-11-23T03:35:13.551Z,67.89
2023-11-23T03:38:28.193Z,67.59
2023-11-23T03:41:40.055Z,69.02
2023-11-23T03:44:33.265Z,70.21
2023-11-23T03:47:29.809Z,70.22
2023-11-23T03:50:40.426Z,68.10
2023-11-23T03:53:30.552Z,70.01
2023-11-23T03:56:42.371Z,71.37
2023-11-23T03:59:33.989Z,71.75
2023-11-23T04:02:45.797Z,71.78
2023-11-23T04:05:41.282Z,73.44
2023-11-23T04:08:55.865Z,72.26
2023-11-23T04:12:00.320Z,73.77
2023-11-23T04:14:57.731Z,73.46
2023-11-23T04:17:51.930Z,74.24
2023-11-23T04:21:03.974Z,76.36
2023-11-23T04:23:48.621Z,76.15
2023-11-23T04:26:54.407Z,77.59
2023-11-23T04:29:49.537Z,78.50
2023-11-23T04:33:02.817Z,78.81
2023-11-23T04:35:47.329Z,79.32
2023-11-23T04:38:57.833Z,79.23
2023-11-23T04:42:03.922Z,80.04
2023-11-23T04:45:15.866Z,82.41
2023-11-23T04:48:27.856Z,83.23
2023-11-23T04:51:11.611Z,83.04
2023-11-23T04:54:23.495Z,82.39
2023-11-23T04:57:12.976Z,83.33
2023-11-23T05:00:26.462Z,84.42
2023-11-23T05:03:32.968Z,84.34
2023-11-23T05:06:08.671Z,84.83
2023-11-23T05:09:20.490Z,84.78
2023-11-23T05:14:59.118Z,83.17
2023-11-23T05:17:53.098Z,84.49
2023-11-23T05:21:05.920Z,83.72
2023-11-23T05:24:03.737Z,83.17
2023-11-23T05:27:16.650Z,85.81
2023-11-23T05:30:34.043Z,84.34
2023-11-23T05:33:48.494Z,85.68
2023-11-23T05:37:00.313Z,83.98
2023-11-23T05:42:57.565Z,85.19
2023-11-23T05:46:15.462Z,85.53
2023-11-23T05:49:07.866Z,86.21
2023-11-23T05:51:59.709Z,85.64
2023-11-23T05:55:12.824Z,84.77
2023-11-23T05:58:27.420Z,83.57
2023-11-23T06:01:39.141Z,85.60
2023-11-23T06:04:31.106Z,86.43
2023-11-23T06:07:43.462Z,86.20
2023-11-23T06:10:35.515Z,85.67
2023-11-23T06:13:50.369Z,85.78
2023-11-23T06:17:02.438Z,86.02
2023-11-23T06:20:03.138Z,86.37
2023-11-23T06:23:15.013Z,85.92
2023-11-23T06:26:33.273Z,85.98
2023-11-23T06:29:46.205Z,84.99
2023-11-23T06:32:50.482Z,84.03
2023-11-23T06:35:34.762Z,83.51
2023-11-23T06:38:22.835Z,85.68
2023-11-23T06:41:34.672Z,86.07
2023-11-23T06:44:17.035Z,84.52
2023-11-23T06:47:11.542Z,84.41
2023-11-23T06:50:23.426Z,85.67
2023-11-23T06:53:36.730Z,86.68
2023-11-23T06:56:14.399Z,85.52
2023-11-23T06:58:48.183Z,85.08
2023-11-23T07:02:00.267Z,85.48
2023-11-23T07:05:15.486Z,87.72
2023-11-23T07:08:10.761Z,86.40
2023-11-23T07:11:14.503Z,85.12
2023-11-23T07:14:26.207Z,83.96
2023-11-23T07:20:16.452Z,84.15
2023-11-23T07:23:28.949Z,84.74
2023-11-23T07:26:40.909Z,85.55
2023-11-23T07:29:52.735Z,85.10
2023-11-23T07:33:04.668Z,84.38
2023-11-23T07:38:50.950Z,84.52
2023-11-23T07:41:45.437Z,84.23
2023-11-23T07:44:57.357Z,85.50
2023-11-23T07:47:49.120Z,84.54
2023-11-23T07:51:01.600Z,85.67
2023-11-23T07:54:00.921Z,85.47
2023-11-23T07:57:12.865Z,86.42
2023-11-23T08:00:29.791Z,86.60
2023-11-23T08:03:31.817Z,86.77
2023-11-23T08:06:43.929Z,86.81
2023-11-23T08:09:40.885Z,86.58
2023-11-23T08:12:15.173Z,86.22
2023-11-23T08:15:03.790Z,85.75
2023-11-23T08:18:15.778Z,86.19
2023-11-23T08:21:26.762Z,87.18
2023-11-23T08:24:28.344Z,88.06
2023-11-23T08:27:39.397Z,88.47
2023-11-23T08:30:41.587Z,86.73
2023-11-23T08:33:53.612Z,86.89
2023-11-23T08:36:48.794Z,85.15
2023-11-23T08:39:21.951Z,86.58
2023-11-23T08:41:54.213Z,85.10
2023-11-23T08:45:10.881Z,83.98
2023-11-23T08:48:23.970Z,83.65
2023-11-23T08:51:25.637Z,83.04
2023-11-23T08:54:37.790Z,82.16
2023-11-23T08:57:52.558Z,83.07
2023-11-23T09:01:07.237Z,81.00
2023-11-23T09:04:10.376Z,81.83
2023-11-23T09:06:44.263Z,82.54
2023-11-23T09:09:38.857Z,83.54
2023-11-23T09:12:50.538Z,83.41
2023-11-23T09:16:02.550Z,85.02
2023-11-23T09:19:18.332Z,83.58
2023-11-23T09:22:30.381Z,84.36
2023-11-23T09:25:42.159Z,84.87
2023-11-23T09:28:14.351Z,82.95
2023-11-23T09:30:45.709Z,84.12
2023-11-23T09:33:20.775Z,82.97
2023-11-23T09:36:16.232Z,82.91
2023-11-23T09:38:53.327Z,84.90
2023-11-23T09:41:26.735Z,86.87
2023-11-23T09:44:21.185Z,87.30
2023-11-23T09:47:22.277Z,87.44
2023-11-23T09:50:24.184Z,88.69
2023-11-23T09:56:13.049Z,88.51
2023-11-23T09:59:25.278Z,88.72
2023-11-23T10:02:39.035Z,88.82
2023-11-23T10:05:21.569Z,89.22
2023-11-23T10:08:34.747Z,88.48
2023-11-23T10:11:42.483Z,89.66
2023-11-23T10:14:57.390Z,89.94
2023-11-23T10:17:49.435Z,89.47
2023-11-23T10:20:41.484Z,87.75
2023-11-23T10:23:53.395Z,87.52
2023-11-23T10:27:00.185Z,88.27
2023-11-23T10:30:13.707Z,89.22
2023-11-23T10:33:13.493Z,88.39
2023-11-23T10:36:29.062Z,90.51
2023-11-23T10:39:41.887Z,93.15
2023-11-23T10:42:57.246Z,91.72
2023-11-23T10:46:13.385Z,93.56
2023-11-23T10:49:06.245Z,94.49
2023-11-23T10:52:21.944Z,95.37
2023-11-23T10:55:26.066Z,96.63
2023-11-23T10:58:24.518Z,96.31
2023-11-23T11:01:38.480Z,96.21
2023-11-23T11:04:21.876Z,95.64
2023-11-23T11:07:01.345Z,96.21
2023-11-23T11:10:14.112Z,95.41
2023-11-23T11:13:15.628Z,95.75
2023-11-23T11:16:05.122Z,96.62
2023-11-23T11:18:58.321Z,97.32
2023-11-23T11:21:52.440Z,96.59
2023-11-23T11:24:47.424Z,96.37
2023-11-23T11:27:59.376Z,96.27
2023-11-23T11:31:15.466Z,96.86
2023-11-23T11:34:28.505Z,97.97
2023-11-23T11:37:44.677Z,93.99
2023-11-23T11:40:39.137Z,93.82
2023-11-23T11:43:40.943Z,96.77
2023-11-23T11:46:55.514Z,95.45
2023-11-23T11:49:54.705Z,94.70
2023-11-23T11:52:54.191Z,93.44
2023-11-23T11:55:37.799Z,93.66
2023-11-23T11:58:09.459Z,93.79
2023-11-23T12:01:01.181Z,93.96
2023-11-23T12:03:43.098Z,94.21
2023-11-23T12:06:46.520Z,92.70
2023-11-23T12:09:46.268Z,93.11
2023-11-23T12:12:59.144Z,94.69
2023-11-23T12:15:58.182Z,95.68
2023-11-23T12:18:56.250Z,97.20
2023-11-23T12:21:32.391Z,96.93
2023-11-23T12:24:12.742Z,97.23
2023-11-23T12:27:10.461Z,96.90
2023-11-23T12:29:55.711Z,98.00
2023-11-23T12:32:39.290Z,96.09
2023-11-23T12:35:14.627Z,96.09
2023-11-23T12:38:15.943Z,97.39
2023-11-23T12:40:48.051Z,96.03
2023-11-23T12:43:19.675Z,95.58
2023-11-23T12:45:51.382Z,96.50
2023-11-23T12:48:23.022Z,96.05
2023-11-23T12:51:37.720Z,94.99
2023-11-23T12:54:21.481Z,95.08
2023-11-23T12:57:13.877Z,96.11
2023-11-23T13:00:07.663Z,95.77
2023-11-23T13:02:54.087Z,94.14
2023-11-23T13:05:28.060Z,93.61
2023-11-23T13:08:14.028Z,95.83
2023-11-23T13:10:59.324Z,96.14
2023-11-23T13:13:36.608Z,96.57
2023-11-23T13:16:19.057Z,97.96
2023-11-23T13:19:30.205Z,98.11
2023-11-23T13:22:09.237Z,98.05
2023-11-23T13:25:18.313Z,98.25
2023-11-23T13:28:11.930Z,100.00
2023-11-23T13:30:44.628Z,99.19
2023-11-23T13:33:40.655Z,100.00
2023-11-23T13:36:29.735Z,100.00
2023-11-23T13:39:23.248Z,100.00
2023-11-23T13:42:38.525Z,98.66
2023-11-23T13:45:51.246Z,99.38
2023-11-23T13:49:04.585Z,99.53
2023-11-23T13:52:14.952Z,98.68
2023-11-23T13:58:01.066Z,99.07
2023-11-23T14:01:15.682Z,99.23
2023-11-23T14:04:27.941Z,98.26
2023-11-23T14:07:40.896Z,97.81
2023-11-23T14:10:46.293Z,96.85
2023-11-23T14:14:01.972Z,97.17
2023-11-23T14:17:15.250Z,97.36
2023-11-23T14:20:27.848Z,95.67
2023-11-23T14:23:19.779Z,96.66
2023-11-23T14:26:16.441Z,96.36
2023-11-23T14:28:49.172Z,95.73
2023-11-23T14:31:56.847Z,95.94
2023-11-23T14:34:48.473Z,97.59
2023-11-23T14:37:22.578Z,96.97
2023-11-23T14:40:29.542Z,99.56
2023-11-23T14:43:41.731Z,100.00
2023-11-23T14:46:56.492Z,100.00
2023-11-23T14:50:10.332Z,100.00
2023-11-23T14:52:48.941Z,100.00
2023-11-23T14:55:47.049Z,100.00
2023-11-23T14:58:59.592Z,100.00
2023-11-23T15:01:43.765Z,100.00
2023-11-23T15:04:59.648Z,100.00
2023-11-23T15:07:59.542Z,100.00
2023-11-23T15:11:11.855Z,100.00
2023-11-23T15:14:29.687Z,100.00
2023-11-23T15:17:22.074Z,100.00
2023-11-23T15:20:28.190Z,100.00
2023-11-23T15:23:24.016Z,100.00
2023-11-23T15:25:55.847Z,100.00
2023-11-23T15:28:47.569Z,100.00
2023-11-23T15:31:33.277Z,100.00
2023-11-23T15:34:46.039Z,100.00
2023-11-23T15:37:44.003Z,100.00
2023-11-23T15:40:56.556Z,100.00
2023-11-23T15:43:37.453Z,100.00
2023-11-23T15:46:50.651Z,100.00
2023-11-23T15:49:51.549Z,99.13
2023-11-23T15:52:55.328Z,99.20
2023-11-23T15:56:07.310Z,99.34
2023-11-23T15:59:00.573Z,98.50
2023-11-23T16:02:17.098Z,97.58
2023-11-23T16:04:58.409Z,97.25
2023-11-23T16:08:14.260Z,97.84
2023-11-23T16:11:06.125Z,97.42
2023-11-23T16:14:18.651Z,96.57
2023-11-23T16:16:58.031Z,95.81
2023-11-23T16:20:12.767Z,94.28
2023-11-23T16:23:28.192Z,94.10
2023-11-23T16:26:29.449Z,93.75
2023-11-23T16:29:41.408Z,94.47
2023-11-23T16:32:46.994Z,93.75
2023-11-23T16:35:39.020Z,92.07
2023-11-23T16:38:36.140Z,91.61
2023-11-23T16:41:48.151Z,91.52
2023-11-23T16:44:19.956Z,91.36
2023-11-23T16:47:21.662Z,91.26
2023-11-23T16:50:33.745Z,91.74
2023-11-23T16:53:48.920Z,91.10
2023-11-23T16:56:52.561Z,90.92
2023-11-23T16:59:28.194Z,90.97
2023-11-23T17:02:00.116Z,90.76
2023-11-23T17:05:15.790Z,90.96
2023-11-23T17:08:01.499Z,89.83
2023-11-23T17:10:36.286Z,89.86
2023-11-23T17:13:10.777Z,89.54
2023-11-23T17:16:21.571Z,90.38
2023-11-23T17:18:53.051Z,90.46
2023-11-23T17:21:49.019Z,90.91
2023-11-23T17:24:32.627Z,91.58
2023-11-23T17:27:07.509Z,91.82
2023-11-23T17:30:02.178Z,92.94
2023-11-23T17:32:54.379Z,92.88
2023-11-23T17:36:06.924Z,92.76
2023-11-23T17:39:17.281Z,93.06
2023-11-23T17:42:32.288Z,92.92
2023-11-23T17:45:48.981Z,92.74
2023-11-23T17:48:46.382Z,93.50
2023-11-23T17:51:58.561Z,93.67
2023-11-23T17:55:12.335Z,93.27
2023-11-23T17:58:11.345Z,93.01
2023-11-23T18:01:14.513Z,93.52
2023-11-23T18:04:16.975Z,93.29
2023-11-23T18:07:09.083Z,94.10
2023-11-23T18:10:21.812Z,94.77
2023-11-23T18:13:13.337Z,95.57
2023-11-23T18:15:50.014Z,98.28
2023-11-23T18:19:02.978Z,98.39
2023-11-23T18:22:15.791Z,99.72
2023-11-23T18:25:26.437Z,100.00
2023-11-23T18:28:41.033Z,100.00
2023-11-23T18:31:53.998Z,100.00
2023-11-23T18:34:26.343Z,100.00
2023-11-23T18:37:39.209Z,100.00
2023-11-23T18:40:18.414Z,100.00
2023-11-23T18:42:54.919Z,100.00
2023-11-23T18:45:53.624Z,100.00
2023-11-23T18:49:06.456Z,100.00
2023-11-23T18:52:05.835Z,100.00
2023-11-23T18:54:57.487Z,100.00
2023-11-23T18:57:42.864Z,100.00
2023-11-23T19:00:16.445Z,100.00
2023-11-23T19:03:20.276Z,100.00
2023-11-23T19:06:15.309Z,100.00
2023-11-23T19:08:48.925Z,100.00
2023-11-23T19:11:24.234Z,100.00
2023-11-23T19:14:38.872Z,100.00
2023-11-23T19:18:00.478Z,100.00
2023-11-23T19:21:10.496Z,100.00
2023-11-23T19:24:25.009Z,100.00
2023-11-23T19:27:34.003Z,100.00
2023-11-23T19:30:48.048Z,100.00
2023-11-23T19:33:33.281Z,100.00
2023-11-23T19:36:42.937Z,100.00
2023-11-23T19:39:32.001Z,100.00
2023-11-23T19:42:11.346Z,100.00
2023-11-23T19:45:10.375Z,100.00
2023-11-23T19:47:48.385Z,100.00
2023-11-23T19:50:26.495Z,100.00
2023-11-23T19:53:05.687Z,100.00
2023-11-23T19:55:57.470Z,100.00
2023-11-23T19:58:31.899Z,100.00
2023-11-23T20:01:20.440Z,100.00
2023-11-23T20:03:55.451Z,100.00
2023-11-23T20:06:32.683Z,100.00
2023-11-23T20:09:26.040Z,100.00
2023-11-23T20:12:00.678Z,100.00
2023-11-23T20:14:35.954Z,100.00
2023-11-23T20:17:11.801Z,100.00
2023-11-23T20:19:45.073Z,100.00
2023-11-23T20:22:23.259Z,100.00
2023-11-23T20:25:05.405Z,99.27
2023-11-23T20:27:41.341Z,99.80
2023-11-23T20:30:33.175Z,98.89
2023-11-23T20:33:10.007Z,96.58
2023-11-23T20:35:52.840Z,96.61
2023-11-23T20:39:05.023Z,95.23
2023-11-23T20:42:02.002Z,94.41
2023-11-23T20:44:58.245Z,94.08
2023-11-23T20:47:32.500Z,93.11
2023-11-23T20:50:24.277Z,92.69
2023-11-23T20:52:58.939Z,92.79
2023-11-23T20:55:31.816Z,92.29
2023-11-23T20:58:32.040Z,92.87
2023-11-23T21:01:08.053Z,92.33
2023-11-23T21:04:04.448Z,91.92
2023-11-23T21:07:11.428Z,92.89
2023-11-23T21:09:45.779Z,92.60
2023-11-23T21:12:25.022Z,91.07
2023-11-23T21:15:02.498Z,91.42
2023-11-23T21:17:38.209Z,91.95
2023-11-23T21:20:15.250Z,91.13
2023-11-23T21:22:50.018Z,90.72
2023-11-23T21:25:21.843Z,91.34
2023-11-23T21:28:07.386Z,89.28
2023-11-23T21:31:06.447Z,89.31
2023-11-23T21:33:41.515Z,89.38
2023-11-23T21:36:13.405Z,89.05
2023-11-23T21:38:45.994Z,88.83
2023-11-23T21:41:26.522Z,87.74
2023-11-23T21:43:58.478Z,86.58
2023-11-23T21:46:32.847Z,86.40
2023-11-23T21:49:04.610Z,85.40
2023-11-23T21:51:39.787Z,85.40
2023-11-23T21:54:14.496Z,85.30
2023-11-23T21:56:46.343Z,83.91
2023-11-23T21:59:19.092Z,83.29
2023-11-23T22:01:53.517Z,83.62
2023-11-23T22:04:34.415Z,82.16
2023-11-23T22:07:09.163Z,83.04
2023-11-23T22:09:54.497Z,82.62
2023-11-23T22:12:37.357Z,83.18
2023-11-23T22:15:10.881Z,83.26
2023-11-23T22:17:47.548Z,82.48
2023-11-23T22:20:24.261Z,82.94
2023-11-23T22:22:56.793Z,83.76
2023-11-23T22:25:34.518Z,83.59
2023-11-23T22:28:11.616Z,82.95
2023-11-23T22:30:45.339Z,83.45
2023-11-23T22:33:21.505Z,82.57
2023-11-23T22:36:34.475Z,82.62
2023-11-23T22:39:10.687Z,81.02
2023-11-23T22:41:44.829Z,82.25
2023-11-23T22:44:37.411Z,81.96
2023-11-23T22:47:13.501Z,82.47
2023-11-23T22:49:52.090Z,82.04
2023-11-23T22:52:23.970Z,80.08
2023-11-23T22:54:55.621Z,79.82
2023-11-23T22:57:27.995Z,80.68
2023-11-23T23:00:02.053Z,78.87
2023-11-23T23:02:34.662Z,77.87
2023-11-23T23:05:32.322Z,76.65
2023-11-23T23:08:04.587Z,76.76
2023-11-23T23:10:41.581Z,76.35
2023-11-23T23:13:14.599Z,76.06
2023-11-23T23:15:46.968Z,74.42
2023-11-23T23:18:18.990Z,75.07
2023-11-23T23:20:53.513Z,75.97
2023-11-23T23:23:28.255Z,74.91
2023-11-23T23:26:07.195Z,74.83
2023-11-23T23:28:39.072Z,74.40
2023-11-23T23:31:10.708Z,75.10
2023-11-23T23:33:42.475Z,74.61
2023-11-23T23:36:22.189Z,75.53
2023-11-23T23:38:56.763Z,74.58
2023-11-23T23:41:36.155Z,75.09
2023-11-23T23:44:07.891Z,76.88
2023-11-23T23:46:39.677Z,77.69
2023-11-23T23:49:14.551Z,75.15
2023-11-23T23:51:48.974Z,75.66
2023-11-23T23:54:23.930Z,75.83
2023-11-23T23:56:59.171Z,76.25
2023-11-23T23:59:31.435Z,74.89
